sensor_id;sensor_type;location;lat;lon;timestamp;temperature;humidity
6536;DHT22;34330;52.08032700;5.40923460;2022-12-22T00:01:35;12.70;95.40
6536;DHT22;34330;52.08032700;5.40923460;2022-12-22T00:04:25;12.70;95.40
6536;DHT22;34330;52.08032700;5.40923460;2022-12-22T00:07:10;12.70;95.40
6536;DHT22;34330;52.08032700;5.40923460;2022-12-22T00:09:55;12.70;95.40
6536;DHT22;34330;52.08032700;5.40923460;2022-12-22T00:12:41;12.80;95.50
6536;DHT22;34330;52.08032700;5.40923460;2022-12-22T00:15:30;12.80;95.50
6536;DHT22;34330;52.08032700;5.40923460;2022-12-22T00:18:17;12.80;95.40
6536;DHT22;34330;52.08032700;5.40923460;2022-12-22T00:21:04;12.80;95.40
6536;DHT22;34330;52.08032700;5.40923460;2022-12-22T00:23:50;12.80;95.40
6536;DHT22;34330;52.08032700;5.40923460;2022-12-22T00:26:35;12.80;95.40
6536;DHT22;34330;52.08032700;5.40923460;2022-12-22T00:29:21;12.80;95.50
6536;DHT22;34330;52.08032700;5.40923460;2022-12-22T00:32:11;12.80;95.40
6536;DHT22;34330;52.08032700;5.40923460;2022-12-22T00:34:57;12.80;95.50
6536;DHT22;34330;52.08032700;5.40923460;2022-12-22T00:37:45;12.80;95.40
6536;DHT22;34330;52.08032700;5.40923460;2022-12-22T00:40:30;12.80;95.40
6536;DHT22;34330;52.08032700;5.40923460;2022-12-22T00:43:16;14.80;96.40
6536;DHT22;34330;52.08032700;5.40923460;2022-12-22T00:46:01;12.80;95.40
6536;DHT22;34330;52.08032700;5.40923460;2022-12-22T00:48:47;12.80;95.40
6536;DHT22;34330;52.08032700;5.40923460;2022-12-22T00:51:33;12.80;95.40
6536;DHT22;34330;52.08032700;5.40923460;2022-12-22T00:54:21;12.80;95.40
6536;DHT22;34330;52.08032700;5.40923460;2022-12-22T00:57:09;12.80;95.40
6536;DHT22;34330;52.08032700;5.40923460;2022-12-22T00:59:59;12.80;95.50
6536;DHT22;34330;52.08032700;5.40923460;2022-12-22T01:02:47;12.80;95.50
6536;DHT22;34330;52.08032700;5.40923460;2022-12-22T01:05:32;12.80;95.50
6536;DHT22;34330;52.08032700;5.40923460;2022-12-22T01:08:17;12.80;95.60
6536;DHT22;34330;52.08032700;5.40923460;2022-12-22T01:11:05;12.80;95.60
6536;DHT22;34330;52.08032700;5.40923460;2022-12-22T01:13:50;12.80;95.60
6536;DHT22;34330;52.08032700;5.40923460;2022-12-22T01:16:36;12.90;95.60
6536;DHT22;34330;52.08032700;5.40923460;2022-12-22T01:19:21;12.90;95.50
6536;DHT22;34330;52.08032700;5.40923460;2022-12-22T01:22:08;12.90;95.60
6536;DHT22;34330;52.08032700;5.40923460;2022-12-22T01:24:54;12.90;95.60
6536;DHT22;34330;52.08032700;5.40923460;2022-12-22T01:27:41;12.90;95.60
6536;DHT22;34330;52.08032700;5.40923460;2022-12-22T01:30:26;12.90;95.60
6536;DHT22;34330;52.08032700;5.40923460;2022-12-22T01:33:12;12.90;95.60
6536;DHT22;34330;52.08032700;5.40923460;2022-12-22T01:35:58;12.90;95.60
6536;DHT22;34330;52.08032700;5.40923460;2022-12-22T01:38:43;12.90;95.60
6536;DHT22;34330;52.08032700;5.40923460;2022-12-22T01:41:29;12.90;95.60
6536;DHT22;34330;52.08032700;5.40923460;2022-12-22T01:44:17;12.90;95.60
6536;DHT22;34330;52.08032700;5.40923460;2022-12-22T01:47:29;12.90;95.60
6536;DHT22;34330;52.08032700;5.40923460;2022-12-22T01:50:18;12.90;95.60
6536;DHT22;34330;52.08032700;5.40923460;2022-12-22T01:53:10;12.90;95.90
6536;DHT22;34330;52.08032700;5.40923460;2022-12-22T01:55:56;12.90;95.60
6536;DHT22;34330;52.08032700;5.40923460;2022-12-22T01:58:45;12.90;95.60
6536;DHT22;34330;52.08032700;5.40923460;2022-12-22T02:01:34;13.00;95.60
6536;DHT22;34330;52.08032700;5.40923460;2022-12-22T02:04:26;12.90;95.50
6536;DHT22;34330;52.08032700;5.40923460;2022-12-22T02:07:39;13.00;95.60
6536;DHT22;34330;52.08032700;5.40923460;2022-12-22T02:10:47;12.90;95.60
6536;DHT22;34330;52.08032700;5.40923460;2022-12-22T02:13:41;13.00;95.60
6536;DHT22;34330;52.08032700;5.40923460;2022-12-22T02:16:36;13.00;95.60
6536;DHT22;34330;52.08032700;5.40923460;2022-12-22T02:19:40;13.00;95.50
6536;DHT22;34330;52.08032700;5.40923460;2022-12-22T02:22:37;13.00;95.60
6536;DHT22;34330;52.08032700;5.40923460;2022-12-22T02:25:27;13.00;95.60
6536;DHT22;34330;52.08032700;5.40923460;2022-12-22T02:28:16;13.00;95.60
6536;DHT22;34330;52.08032700;5.40923460;2022-12-22T02:31:02;13.00;95.50
6536;DHT22;34330;52.08032700;5.40923460;2022-12-22T02:33:49;13.00;95.50
6536;DHT22;34330;52.08032700;5.40923460;2022-12-22T02:36:41;13.00;95.50
6536;DHT22;34330;52.08032700;5.40923460;2022-12-22T02:39:36;13.00;95.50
6536;DHT22;34330;52.08032700;5.40923460;2022-12-22T02:42:32;13.00;95.50
6536;DHT22;34330;52.08032700;5.40923460;2022-12-22T02:45:28;13.00;95.50
6536;DHT22;34330;52.08032700;5.40923460;2022-12-22T02:48:21;13.00;95.50
6536;DHT22;34330;52.08032700;5.40923460;2022-12-22T02:51:13;13.00;95.50
6536;DHT22;34330;52.08032700;5.40923460;2022-12-22T02:54:01;13.00;95.40
6536;DHT22;34330;52.08032700;5.40923460;2022-12-22T02:56:47;13.00;95.50
6536;DHT22;34330;52.08032700;5.40923460;2022-12-22T02:59:33;13.00;95.40
6536;DHT22;34330;52.08032700;5.40923460;2022-12-22T03:02:20;13.00;95.40
6536;DHT22;34330;52.08032700;5.40923460;2022-12-22T03:05:06;13.10;95.40
6536;DHT22;34330;52.08032700;5.40923460;2022-12-22T03:07:53;13.00;95.50
6536;DHT22;34330;52.08032700;5.40923460;2022-12-22T03:10:38;13.00;95.40
6536;DHT22;34330;52.08032700;5.40923460;2022-12-22T03:13:24;13.00;95.50
6536;DHT22;34330;52.08032700;5.40923460;2022-12-22T03:16:09;13.10;95.50
6536;DHT22;34330;52.08032700;5.40923460;2022-12-22T03:18:56;13.00;95.50
6536;DHT22;34330;52.08032700;5.40923460;2022-12-22T03:21:42;13.00;95.40
6536;DHT22;34330;52.08032700;5.40923460;2022-12-22T03:24:27;13.00;95.50
6536;DHT22;34330;52.08032700;5.40923460;2022-12-22T03:27:14;13.00;95.50
6536;DHT22;34330;52.08032700;5.40923460;2022-12-22T03:29:42;13.00;95.50
6536;DHT22;34330;52.08032700;5.40923460;2022-12-22T03:32:10;13.00;95.50
6536;DHT22;34330;52.08032700;5.40923460;2022-12-22T03:34:39;13.00;95.50
6536;DHT22;34330;52.08032700;5.40923460;2022-12-22T03:37:07;13.00;95.50
6536;DHT22;34330;52.08032700;5.40923460;2022-12-22T03:39:35;13.00;95.50
6536;DHT22;34330;52.08032700;5.40923460;2022-12-22T03:42:03;13.00;95.40
6536;DHT22;34330;52.08032700;5.40923460;2022-12-22T03:44:51;13.00;95.50
6536;DHT22;34330;52.08032700;5.40923460;2022-12-22T03:47:36;13.00;95.50
6536;DHT22;34330;52.08032700;5.40923460;2022-12-22T03:50:06;13.00;95.50
6536;DHT22;34330;52.08032700;5.40923460;2022-12-22T03:52:34;13.00;95.50
6536;DHT22;34330;52.08032700;5.40923460;2022-12-22T03:55:03;13.00;95.50
6536;DHT22;34330;52.08032700;5.40923460;2022-12-22T03:57:31;13.10;95.60
6536;DHT22;34330;52.08032700;5.40923460;2022-12-22T03:59:59;13.10;95.60
6536;DHT22;34330;52.08032700;5.40923460;2022-12-22T04:02:27;13.10;95.60
6536;DHT22;34330;52.08032700;5.40923460;2022-12-22T04:04:55;13.10;95.60
6536;DHT22;34330;52.08032700;5.40923460;2022-12-22T04:07:24;13.10;95.60
6536;DHT22;34330;52.08032700;5.40923460;2022-12-22T04:09:52;13.10;95.60
6536;DHT22;34330;52.08032700;5.40923460;2022-12-22T04:12:37;13.10;95.60
6536;DHT22;34330;52.08032700;5.40923460;2022-12-22T04:15:25;13.10;95.60
6536;DHT22;34330;52.08032700;5.40923460;2022-12-22T04:17:54;13.10;95.60
6536;DHT22;34330;52.08032700;5.40923460;2022-12-22T04:20:23;13.10;95.60
6536;DHT22;34330;52.08032700;5.40923460;2022-12-22T04:22:54;13.10;95.60
6536;DHT22;34330;52.08032700;5.40923460;2022-12-22T04:25:23;13.10;95.50
6536;DHT22;34330;52.08032700;5.40923460;2022-12-22T04:27:51;13.10;95.50
6536;DHT22;34330;52.08032700;5.40923460;2022-12-22T04:30:19;13.10;95.50
6536;DHT22;34330;52.08032700;5.40923460;2022-12-22T04:32:47;13.10;95.40
6536;DHT22;34330;52.08032700;5.40923460;2022-12-22T04:35:16;13.20;95.50
6536;DHT22;34330;52.08032700;5.40923460;2022-12-22T04:37:44;13.20;95.50
6536;DHT22;34330;52.08032700;5.40923460;2022-12-22T04:40:14;13.20;95.50
6536;DHT22;34330;52.08032700;5.40923460;2022-12-22T04:42:41;13.20;95.40
6536;DHT22;34330;52.08032700;5.40923460;2022-12-22T04:45:10;13.20;95.40
6536;DHT22;34330;52.08032700;5.40923460;2022-12-22T04:47:38;13.20;95.40
6536;DHT22;34330;52.08032700;5.40923460;2022-12-22T04:50:07;13.10;95.40
6536;DHT22;34330;52.08032700;5.40923460;2022-12-22T04:52:35;13.10;95.40
6536;DHT22;34330;52.08032700;5.40923460;2022-12-22T04:55:03;13.10;95.40
6536;DHT22;34330;52.08032700;5.40923460;2022-12-22T04:57:33;13.10;95.40
6536;DHT22;34330;52.08032700;5.40923460;2022-12-22T05:00:08;13.10;95.40
6536;DHT22;34330;52.08032700;5.40923460;2022-12-22T05:02:36;13.10;95.40
6536;DHT22;34330;52.08032700;5.40923460;2022-12-22T05:05:04;13.10;95.40
6536;DHT22;34330;52.08032700;5.40923460;2022-12-22T05:07:33;13.10;95.40
6536;DHT22;34330;52.08032700;5.40923460;2022-12-22T05:10:01;13.10;95.40
6536;DHT22;34330;52.08032700;5.40923460;2022-12-22T05:12:29;13.10;95.40
6536;DHT22;34330;52.08032700;5.40923460;2022-12-22T05:15:16;13.10;95.40
6536;DHT22;34330;52.08032700;5.40923460;2022-12-22T05:17:45;13.10;95.40
6536;DHT22;34330;52.08032700;5.40923460;2022-12-22T05:20:13;13.10;95.40
6536;DHT22;34330;52.08032700;5.40923460;2022-12-22T05:22:42;13.10;95.40
6536;DHT22;34330;52.08032700;5.40923460;2022-12-22T05:25:10;13.10;95.50
6536;DHT22;34330;52.08032700;5.40923460;2022-12-22T05:27:38;13.10;95.50
6536;DHT22;34330;52.08032700;5.40923460;2022-12-22T05:30:07;13.30;95.50
6536;DHT22;34330;52.08032700;5.40923460;2022-12-22T05:32:37;13.10;95.50
6536;DHT22;34330;52.08032700;5.40923460;2022-12-22T05:35:06;13.10;95.40
6536;DHT22;34330;52.08032700;5.40923460;2022-12-22T05:37:34;13.10;95.40
6536;DHT22;34330;52.08032700;5.40923460;2022-12-22T05:40:03;12.60;95.20
6536;DHT22;34330;52.08032700;5.40923460;2022-12-22T05:42:31;13.10;95.50
6536;DHT22;34330;52.08032700;5.40923460;2022-12-22T05:45:08;13.10;95.40
6536;DHT22;34330;52.08032700;5.40923460;2022-12-22T05:47:39;13.10;95.50
6536;DHT22;34330;52.08032700;5.40923460;2022-12-22T05:50:08;13.10;95.40
6536;DHT22;34330;52.08032700;5.40923460;2022-12-22T05:52:36;13.10;95.40
6536;DHT22;34330;52.08032700;5.40923460;2022-12-22T05:55:05;13.10;95.40
6536;DHT22;34330;52.08032700;5.40923460;2022-12-22T05:57:33;13.10;95.40
6536;DHT22;34330;52.08032700;5.40923460;2022-12-22T06:00:02;13.10;95.40
6536;DHT22;34330;52.08032700;5.40923460;2022-12-22T06:02:30;13.10;95.50
6536;DHT22;34330;52.08032700;5.40923460;2022-12-22T06:05:00;13.10;95.40
6536;DHT22;34330;52.08032700;5.40923460;2022-12-22T06:07:28;13.10;95.40
6536;DHT22;34330;52.08032700;5.40923460;2022-12-22T06:09:56;13.10;95.40
6536;DHT22;34330;52.08032700;5.40923460;2022-12-22T06:12:24;13.10;95.40
6536;DHT22;34330;52.08032700;5.40923460;2022-12-22T06:14:52;13.10;95.40
6536;DHT22;34330;52.08032700;5.40923460;2022-12-22T06:17:20;13.10;95.40
6536;DHT22;34330;52.08032700;5.40923460;2022-12-22T06:19:49;13.10;95.40
6536;DHT22;34330;52.08032700;5.40923460;2022-12-22T06:22:18;13.00;95.50
6536;DHT22;34330;52.08032700;5.40923460;2022-12-22T06:24:47;13.00;95.50
6536;DHT22;34330;52.08032700;5.40923460;2022-12-22T06:27:15;13.00;95.50
6536;DHT22;34330;52.08032700;5.40923460;2022-12-22T06:29:43;13.00;95.40
6536;DHT22;34330;52.08032700;5.40923460;2022-12-22T06:32:11;13.00;95.40
6536;DHT22;34330;52.08032700;5.40923460;2022-12-22T06:34:38;13.00;95.30
6536;DHT22;34330;52.08032700;5.40923460;2022-12-22T06:37:06;13.00;95.30
6536;DHT22;34330;52.08032700;5.40923460;2022-12-22T06:39:35;13.00;95.20
6536;DHT22;34330;52.08032700;5.40923460;2022-12-22T06:42:03;13.00;95.20
6536;DHT22;34330;52.08032700;5.40923460;2022-12-22T06:44:49;12.90;95.10
6536;DHT22;34330;52.08032700;5.40923460;2022-12-22T06:47:20;12.90;95.10
6536;DHT22;34330;52.08032700;5.40923460;2022-12-22T06:49:51;12.90;95.10
6536;DHT22;34330;52.08032700;5.40923460;2022-12-22T06:52:19;12.90;95.10
6536;DHT22;34330;52.08032700;5.40923460;2022-12-22T06:54:49;12.80;95.00
6536;DHT22;34330;52.08032700;5.40923460;2022-12-22T06:57:17;12.80;95.10
6536;DHT22;34330;52.08032700;5.40923460;2022-12-22T06:59:48;12.80;95.10
6536;DHT22;34330;52.08032700;5.40923460;2022-12-22T07:02:23;12.80;95.00
6536;DHT22;34330;52.08032700;5.40923460;2022-12-22T07:04:52;12.80;95.10
6536;DHT22;34330;52.08032700;5.40923460;2022-12-22T07:07:20;12.70;95.00
6536;DHT22;34330;52.08032700;5.40923460;2022-12-22T07:09:51;12.70;94.90
6536;DHT22;34330;52.08032700;5.40923460;2022-12-22T07:12:21;12.70;95.10
6536;DHT22;34330;52.08032700;5.40923460;2022-12-22T07:14:49;12.70;95.10
6536;DHT22;34330;52.08032700;5.40923460;2022-12-22T07:17:18;12.70;95.10
6536;DHT22;34330;52.08032700;5.40923460;2022-12-22T07:19:46;12.70;95.10
6536;DHT22;34330;52.08032700;5.40923460;2022-12-22T07:22:14;12.70;95.10
6536;DHT22;34330;52.08032700;5.40923460;2022-12-22T07:24:42;12.70;95.10
6536;DHT22;34330;52.08032700;5.40923460;2022-12-22T07:27:12;12.60;95.00
6536;DHT22;34330;52.08032700;5.40923460;2022-12-22T07:29:40;12.60;95.00
6536;DHT22;34330;52.08032700;5.40923460;2022-12-22T07:32:08;12.60;94.90
6536;DHT22;34330;52.08032700;5.40923460;2022-12-22T07:34:36;12.70;95.00
6536;DHT22;34330;52.08032700;5.40923460;2022-12-22T07:37:03;12.60;94.90
6536;DHT22;34330;52.08032700;5.40923460;2022-12-22T07:39:31;12.60;94.90
6536;DHT22;34330;52.08032700;5.40923460;2022-12-22T07:41:59;12.60;94.90
6536;DHT22;34330;52.08032700;5.40923460;2022-12-22T07:44:47;12.60;95.00
6536;DHT22;34330;52.08032700;5.40923460;2022-12-22T07:47:15;12.50;94.80
6536;DHT22;34330;52.08032700;5.40923460;2022-12-22T07:49:43;12.50;94.80
6536;DHT22;34330;52.08032700;5.40923460;2022-12-22T07:52:29;12.50;94.80
6536;DHT22;34330;52.08032700;5.40923460;2022-12-22T07:54:57;12.50;94.70
6536;DHT22;34330;52.08032700;5.40923460;2022-12-22T07:57:24;12.50;94.70
6536;DHT22;34330;52.08032700;5.40923460;2022-12-22T07:59:54;12.40;94.90
6536;DHT22;34330;52.08032700;5.40923460;2022-12-22T08:02:21;12.40;94.60
6536;DHT22;34330;52.08032700;5.40923460;2022-12-22T08:04:50;12.40;94.60
6536;DHT22;34330;52.08032700;5.40923460;2022-12-22T08:07:19;12.40;94.60
6536;DHT22;34330;52.08032700;5.40923460;2022-12-22T08:09:48;12.30;94.50
6536;DHT22;34330;52.08032700;5.40923460;2022-12-22T08:12:17;12.30;94.60
6536;DHT22;34330;52.08032700;5.40923460;2022-12-22T08:14:45;12.30;94.60
6536;DHT22;34330;52.08032700;5.40923460;2022-12-22T08:17:15;12.30;94.50
6536;DHT22;34330;52.08032700;5.40923460;2022-12-22T08:19:44;12.30;94.60
6536;DHT22;34330;52.08032700;5.40923460;2022-12-22T08:22:16;13.10;94.90
6536;DHT22;34330;52.08032700;5.40923460;2022-12-22T08:24:44;12.20;94.50
6536;DHT22;34330;52.08032700;5.40923460;2022-12-22T08:27:15;12.20;94.40
6536;DHT22;34330;52.08032700;5.40923460;2022-12-22T08:29:54;12.10;94.30
6536;DHT22;34330;52.08032700;5.40923460;2022-12-22T08:32:24;12.10;94.30
6536;DHT22;34330;52.08032700;5.40923460;2022-12-22T08:34:53;12.10;94.30
6536;DHT22;34330;52.08032700;5.40923460;2022-12-22T08:37:24;12.00;94.20
6536;DHT22;34330;52.08032700;5.40923460;2022-12-22T08:39:56;12.00;94.30
6536;DHT22;34330;52.08032700;5.40923460;2022-12-22T08:42:25;12.00;94.30
6536;DHT22;34330;52.08032700;5.40923460;2022-12-22T08:44:53;12.00;94.30
6536;DHT22;34330;52.08032700;5.40923460;2022-12-22T08:47:22;11.90;94.30
6536;DHT22;34330;52.08032700;5.40923460;2022-12-22T08:49:51;11.90;94.30
6536;DHT22;34330;52.08032700;5.40923460;2022-12-22T08:52:20;11.90;94.20
6536;DHT22;34330;52.08032700;5.40923460;2022-12-22T08:54:49;11.80;94.00
6536;DHT22;34330;52.08032700;5.40923460;2022-12-22T08:57:17;11.80;94.00
6536;DHT22;34330;52.08032700;5.40923460;2022-12-22T08:59:47;11.80;94.00
6536;DHT22;34330;52.08032700;5.40923460;2022-12-22T09:02:16;11.80;94.00
6536;DHT22;34330;52.08032700;5.40923460;2022-12-22T09:04:44;11.70;94.00
6536;DHT22;34330;52.08032700;5.40923460;2022-12-22T09:07:13;11.70;94.00
6536;DHT22;34330;52.08032700;5.40923460;2022-12-22T09:09:42;11.70;94.00
6536;DHT22;34330;52.08032700;5.40923460;2022-12-22T09:12:10;11.60;94.00
6536;DHT22;34330;52.08032700;5.40923460;2022-12-22T09:14:39;11.60;94.00
6536;DHT22;34330;52.08032700;5.40923460;2022-12-22T09:17:06;11.60;94.00
6536;DHT22;34330;52.08032700;5.40923460;2022-12-22T09:19:34;11.60;94.00
6536;DHT22;34330;52.08032700;5.40923460;2022-12-22T09:22:02;11.50;94.10
6536;DHT22;34330;52.08032700;5.40923460;2022-12-22T09:24:32;11.50;94.20
6536;DHT22;34330;52.08032700;5.40923460;2022-12-22T09:27:00;11.50;94.30
6536;DHT22;34330;52.08032700;5.40923460;2022-12-22T09:29:29;11.50;94.40
6536;DHT22;34330;52.08032700;5.40923460;2022-12-22T09:31:56;11.50;94.50
6536;DHT22;34330;52.08032700;5.40923460;2022-12-22T09:34:25;11.50;94.60
6536;DHT22;34330;52.08032700;5.40923460;2022-12-22T09:36:53;11.50;94.70
6536;DHT22;34330;52.08032700;5.40923460;2022-12-22T09:39:21;11.50;94.70
6536;DHT22;34330;52.08032700;5.40923460;2022-12-22T09:41:56;11.50;94.70
6536;DHT22;34330;52.08032700;5.40923460;2022-12-22T09:44:26;11.50;94.70
6536;DHT22;34330;52.08032700;5.40923460;2022-12-22T09:46:57;11.50;94.70
6536;DHT22;34330;52.08032700;5.40923460;2022-12-22T09:49:26;11.60;94.90
6536;DHT22;34330;52.08032700;5.40923460;2022-12-22T09:51:56;11.60;94.90
6536;DHT22;34330;52.08032700;5.40923460;2022-12-22T09:54:26;11.60;95.00
6536;DHT22;34330;52.08032700;5.40923460;2022-12-22T09:56:56;11.60;95.00
6536;DHT22;34330;52.08032700;5.40923460;2022-12-22T09:59:26;11.70;95.00
6536;DHT22;34330;52.08032700;5.40923460;2022-12-22T10:02:02;11.70;95.00
6536;DHT22;34330;52.08032700;5.40923460;2022-12-22T10:04:44;11.70;95.00
6536;DHT22;34330;52.08032700;5.40923460;2022-12-22T10:07:24;11.70;95.00
6536;DHT22;34330;52.08032700;5.40923460;2022-12-22T10:09:54;11.80;95.00
6536;DHT22;34330;52.08032700;5.40923460;2022-12-22T10:12:24;11.80;95.30
6536;DHT22;34330;52.08032700;5.40923460;2022-12-22T10:14:53;11.80;95.00
6536;DHT22;34330;52.08032700;5.40923460;2022-12-22T10:17:23;11.80;95.00
6536;DHT22;34330;52.08032700;5.40923460;2022-12-22T10:20:06;11.90;95.00
6536;DHT22;34330;52.08032700;5.40923460;2022-12-22T10:22:40;11.90;95.00
6536;DHT22;34330;52.08032700;5.40923460;2022-12-22T10:25:27;11.90;95.00
6536;DHT22;34330;52.08032700;5.40923460;2022-12-22T10:28:21;11.90;95.00
6536;DHT22;34330;52.08032700;5.40923460;2022-12-22T10:31:10;11.90;94.90
6536;DHT22;34330;52.08032700;5.40923460;2022-12-22T10:33:39;12.00;95.00
6536;DHT22;34330;52.08032700;5.40923460;2022-12-22T10:36:14;12.00;94.90
6536;DHT22;34330;52.08032700;5.40923460;2022-12-22T10:38:55;12.00;94.90
6536;DHT22;34330;52.08032700;5.40923460;2022-12-22T10:41:25;12.00;94.90
6536;DHT22;34330;52.08032700;5.40923460;2022-12-22T10:43:57;12.00;95.00
6536;DHT22;34330;52.08032700;5.40923460;2022-12-22T10:46:31;12.00;94.90
6536;DHT22;34330;52.08032700;5.40923460;2022-12-22T10:49:10;12.00;94.90
6536;DHT22;34330;52.08032700;5.40923460;2022-12-22T10:51:40;12.00;94.90
6536;DHT22;34330;52.08032700;5.40923460;2022-12-22T10:54:08;12.00;94.90
6536;DHT22;34330;52.08032700;5.40923460;2022-12-22T10:56:58;12.00;94.90
6536;DHT22;34330;52.08032700;5.40923460;2022-12-22T10:59:28;12.00;94.90
6536;DHT22;34330;52.08032700;5.40923460;2022-12-22T11:05:02;12.10;94.80
6536;DHT22;34330;52.08032700;5.40923460;2022-12-22T11:07:32;12.10;94.80
6536;DHT22;34330;52.08032700;5.40923460;2022-12-22T11:10:00;12.10;94.80
6536;DHT22;34330;52.08032700;5.40923460;2022-12-22T11:12:36;12.10;94.70
6536;DHT22;34330;52.08032700;5.40923460;2022-12-22T11:15:16;12.10;94.70
6536;DHT22;34330;52.08032700;5.40923460;2022-12-22T11:17:57;12.10;94.60
6536;DHT22;34330;52.08032700;5.40923460;2022-12-22T11:20:43;12.10;94.70
6536;DHT22;34330;52.08032700;5.40923460;2022-12-22T11:23:19;12.10;94.70
6536;DHT22;34330;52.08032700;5.40923460;2022-12-22T11:25:54;12.10;94.70
6536;DHT22;34330;52.08032700;5.40923460;2022-12-22T11:28:38;12.10;94.70
6536;DHT22;34330;52.08032700;5.40923460;2022-12-22T11:31:25;12.10;94.80
6536;DHT22;34330;52.08032700;5.40923460;2022-12-22T11:34:03;12.10;94.70
6536;DHT22;34330;52.08032700;5.40923460;2022-12-22T11:36:51;12.10;95.00
6536;DHT22;34330;52.08032700;5.40923460;2022-12-22T11:39:32;12.10;95.10
6536;DHT22;34330;52.08032700;5.40923460;2022-12-22T11:42:15;12.20;95.20
6536;DHT22;34330;52.08032700;5.40923460;2022-12-22T11:44:54;12.20;95.30
6536;DHT22;34330;52.08032700;5.40923460;2022-12-22T11:47:35;12.20;95.30
6536;DHT22;34330;52.08032700;5.40923460;2022-12-22T11:50:18;12.30;95.30
6536;DHT22;34330;52.08032700;5.40923460;2022-12-22T11:53:24;12.30;95.40
6536;DHT22;34330;52.08032700;5.40923460;2022-12-22T11:56:05;12.40;95.40
6536;DHT22;34330;52.08032700;5.40923460;2022-12-22T11:58:57;12.40;95.40
6536;DHT22;34330;52.08032700;5.40923460;2022-12-22T12:01:41;12.50;95.50
6536;DHT22;34330;52.08032700;5.40923460;2022-12-22T12:04:24;12.50;95.40
6536;DHT22;34330;52.08032700;5.40923460;2022-12-22T12:07:23;11.50;94.90
6536;DHT22;34330;52.08032700;5.40923460;2022-12-22T12:10:01;12.60;95.30
6536;DHT22;34330;52.08032700;5.40923460;2022-12-22T12:12:37;12.60;95.10
6536;DHT22;34330;52.08032700;5.40923460;2022-12-22T12:15:21;12.70;95.10
6536;DHT22;34330;52.08032700;5.40923460;2022-12-22T16:32:13;12.00;94.40
6536;DHT22;34330;52.08032700;5.40923460;2022-12-22T16:34:44;11.90;94.60
6536;DHT22;34330;52.08032700;5.40923460;2022-12-22T16:37:19;11.90;94.60
6536;DHT22;34330;52.08032700;5.40923460;2022-12-22T16:39:47;11.90;94.60
6536;DHT22;34330;52.08032700;5.40923460;2022-12-22T16:42:18;11.90;94.70
6536;DHT22;34330;52.08032700;5.40923460;2022-12-22T16:45:12;11.90;94.70
6536;DHT22;34330;52.08032700;5.40923460;2022-12-22T16:47:42;11.90;95.10
6536;DHT22;34330;52.08032700;5.40923460;2022-12-22T16:50:15;11.90;94.80
6536;DHT22;34330;52.08032700;5.40923460;2022-12-22T16:52:43;11.90;94.90
6536;DHT22;34330;52.08032700;5.40923460;2022-12-22T16:55:13;11.90;94.80
6536;DHT22;34330;52.08032700;5.40923460;2022-12-22T16:57:41;11.90;94.90
6536;DHT22;34330;52.08032700;5.40923460;2022-12-22T17:00:13;11.90;94.90
6536;DHT22;34330;52.08032700;5.40923460;2022-12-22T17:02:47;11.90;94.90
6536;DHT22;34330;52.08032700;5.40923460;2022-12-22T17:05:24;12.00;95.30
6536;DHT22;34330;52.08032700;5.40923460;2022-12-22T17:07:54;12.00;95.00
6536;DHT22;34330;52.08032700;5.40923460;2022-12-22T17:10:23;12.00;95.10
6536;DHT22;34330;52.08032700;5.40923460;2022-12-22T17:12:54;12.00;95.10
6536;DHT22;34330;52.08032700;5.40923460;2022-12-22T17:15:23;12.00;95.10
6536;DHT22;34330;52.08032700;5.40923460;2022-12-22T17:17:53;12.00;95.10
6536;DHT22;34330;52.08032700;5.40923460;2022-12-22T17:20:25;12.00;95.10
6536;DHT22;34330;52.08032700;5.40923460;2022-12-22T17:22:55;12.00;95.10
6536;DHT22;34330;52.08032700;5.40923460;2022-12-22T17:25:26;12.00;95.20
6536;DHT22;34330;52.08032700;5.40923460;2022-12-22T17:27:55;12.00;95.20
6536;DHT22;34330;52.08032700;5.40923460;2022-12-22T17:30:25;12.00;95.20
6536;DHT22;34330;52.08032700;5.40923460;2022-12-22T17:32:54;12.00;95.20
6536;DHT22;34330;52.08032700;5.40923460;2022-12-22T17:35:24;12.00;95.20
6536;DHT22;34330;52.08032700;5.40923460;2022-12-22T17:37:54;12.00;95.20
6536;DHT22;34330;52.08032700;5.40923460;2022-12-22T17:40:24;12.10;95.20
6536;DHT22;34330;52.08032700;5.40923460;2022-12-22T17:42:53;12.00;95.20
6536;DHT22;34330;52.08032700;5.40923460;2022-12-22T17:45:21;12.00;95.20
6536;DHT22;34330;52.08032700;5.40923460;2022-12-22T17:47:49;12.00;95.20
6536;DHT22;34330;52.08032700;5.40923460;2022-12-22T17:50:23;12.10;95.10
6536;DHT22;34330;52.08032700;5.40923460;2022-12-22T17:52:51;12.00;95.00
6536;DHT22;34330;52.08032700;5.40923460;2022-12-22T17:55:22;11.90;95.10
6536;DHT22;34330;52.08032700;5.40923460;2022-12-22T17:58:13;12.10;95.20
6536;DHT22;34330;52.08032700;5.40923460;2022-12-22T18:00:41;12.10;95.30
6536;DHT22;34330;52.08032700;5.40923460;2022-12-22T18:03:11;12.10;95.30
6536;DHT22;34330;52.08032700;5.40923460;2022-12-22T18:05:43;12.10;95.30
6536;DHT22;34330;52.08032700;5.40923460;2022-12-22T18:08:15;12.10;95.30
6536;DHT22;34330;52.08032700;5.40923460;2022-12-22T18:10:44;12.10;95.60
6536;DHT22;34330;52.08032700;5.40923460;2022-12-22T18:13:15;12.10;95.30
6536;DHT22;34330;52.08032700;5.40923460;2022-12-22T18:15:43;12.20;95.40
6536;DHT22;34330;52.08032700;5.40923460;2022-12-22T18:18:12;12.20;95.30
6536;DHT22;34330;52.08032700;5.40923460;2022-12-22T18:20:42;12.30;95.40
6536;DHT22;34330;52.08032700;5.40923460;2022-12-22T18:23:15;12.20;95.40
6536;DHT22;34330;52.08032700;5.40923460;2022-12-22T18:25:44;12.20;95.50
6536;DHT22;34330;52.08032700;5.40923460;2022-12-22T18:28:15;12.20;95.40
6536;DHT22;34330;52.08032700;5.40923460;2022-12-22T18:30:44;12.20;95.50
6536;DHT22;34330;52.08032700;5.40923460;2022-12-22T18:33:12;12.20;95.50
6536;DHT22;34330;52.08032700;5.40923460;2022-12-22T18:35:42;12.20;95.50
6536;DHT22;34330;52.08032700;5.40923460;2022-12-22T18:38:23;12.20;95.50